Time;durP1;ratioP1;P1;durP2;ratioP2;P2;SDS_P1;SDS_P2;PMS_P1;PMS_P2;Temp;Humidity;BMP_temperature;BMP_pressure;BME280_temperature;BME280_humidity;BME280_pressure;Samples;Min_cycle;Max_cycle;Signal;HPM_P1;HPM_P2
2023/09/13 00:02:20;;;;;;;5.27;3.60;;;;;;;;;;5070625;28;20827;-68
2023/09/13 00:04:47;;;;;;;3.87;2.90;;;;;;;;;;5070513;28;20448;-68
2023/09/13 00:07:14;;;;;;;4.00;2.73;;;;;;;;;;5071335;28;20448;-68
2023/09/13 00:09:41;;;;;;;4.60;3.23;;;;;;;;;;5070267;28;20430;-68
2023/09/13 00:12:09;;;;;;;4.37;3.30;;;;;;;;;;5071001;28;20841;-68
2023/09/13 00:14:36;;;;;;;4.70;3.47;;;;;;;;;;5070413;28;20456;-68
2023/09/13 00:17:03;;;;;;;4.03;3.00;;;;;;;;;;5070900;28;20999;-68
2023/09/13 00:19:32;;;;;;;5.77;3.90;;;;;;;;;;5070904;28;21036;-68
2023/09/13 00:21:59;;;;;;;5.23;3.83;;;;;;;;;;5070930;28;20453;-68
2023/09/13 00:24:26;;;;;;;4.93;3.57;;;;;;;;;;5071862;28;20437;-68
2023/09/13 00:26:53;;;;;;;6.23;3.33;;;;;;;;;;5071261;28;20452;-68
2023/09/13 00:29:20;;;;;;;4.23;3.30;;;;;;;;;;5070595;28;20875;-68
2023/09/13 00:31:47;;;;;;;4.23;3.00;;;;;;;;;;5064421;28;20498;-68
2023/09/13 00:34:15;;;;;;;6.07;3.23;;;;;;;;;;5075670;28;20445;-68
2023/09/13 00:36:43;;;;;;;4.97;3.93;;;;;;;;;;5076660;28;20484;-68
2023/09/13 00:39:11;;;;;;;7.43;4.23;;;;;;;;;;5075148;28;20456;-68
2023/09/13 00:41:39;;;;;;;5.07;3.53;;;;;;;;;;5075319;28;20887;-68
2023/09/13 00:44:06;;;;;;;6.17;4.10;;;;;;;;;;5075428;28;20453;-68
2023/09/13 00:46:33;;;;;;;3.60;3.13;;;;;;;;;;5075555;28;20437;-67
2023/09/13 00:49:01;;;;;;;7.30;3.00;;;;;;;;;;5074828;28;20441;-68
2023/09/13 00:51:28;;;;;;;6.30;3.87;;;;;;;;;;5074851;28;20472;-67
2023/09/13 00:53:57;;;;;;;4.40;2.97;;;;;;;;;;5075106;28;21026;-68
2023/09/13 00:56:25;;;;;;;5.90;4.00;;;;;;;;;;5074443;28;20480;-67
2023/09/13 00:58:52;;;;;;;5.73;3.73;;;;;;;;;;5074925;28;20445;-68
2023/09/13 01:01:19;;;;;;;6.00;3.43;;;;;;;;;;5069885;28;20462;-67
2023/09/13 01:03:47;;;;;;;4.93;3.33;;;;;;;;;;5073114;28;20900;-68
2023/09/13 01:06:14;;;;;;;6.73;4.50;;;;;;;;;;5074291;28;20445;-68
2023/09/13 01:08:43;;;;;;;5.23;3.67;;;;;;;;;;5069897;28;20465;-68
2023/09/13 01:11:12;;;;;;;5.43;3.20;;;;;;;;;;5074670;28;20949;-68
2023/09/13 01:13:39;;;;;;;7.23;4.27;;;;;;;;;;5073634;28;20438;-67
2023/09/13 01:16:14;;;;;;;5.67;3.87;;;;;;;;;;5074267;28;20822;-68
2023/09/13 01:18:45;;;;;;;6.30;3.97;;;;;;;;;;5073626;28;20441;-67
2023/09/13 01:21:20;;;;;;;5.30;3.97;;;;;;;;;;5074596;28;20536;-68
2023/09/13 01:23:58;;;;;;;4.60;3.00;;;;;;;;;;5074895;28;20433;-68
2023/09/13 01:26:42;;;;;;;6.80;3.40;;;;;;;;;;5074487;28;20437;-68
2023/09/13 01:29:14;;;;;;;5.27;3.57;;;;;;;;;;5070648;28;20476;-68
2023/09/13 01:31:41;;;;;;;7.10;3.50;;;;;;;;;;5074196;28;20458;-68
2023/09/13 01:34:08;;;;;;;5.27;3.27;;;;;;;;;;5073588;28;20437;-68
2023/09/13 01:36:35;;;;;;;5.47;3.57;;;;;;;;;;5073929;28;20480;-68
2023/09/13 01:39:04;;;;;;;5.20;3.30;;;;;;;;;;5074156;28;20457;-68
2023/09/13 01:41:33;;;;;;;7.70;4.13;;;;;;;;;;5073989;28;20476;-67
2023/09/13 01:44:00;;;;;;;5.10;3.77;;;;;;;;;;5073300;28;20958;-68
2023/09/13 01:46:33;;;;;;;6.33;3.77;;;;;;;;;;5072579;28;20429;-68
2023/09/13 01:49:01;;;;;;;5.70;3.50;;;;;;;;;;5060985;28;20950;-69
2023/09/13 01:51:29;;;;;;;5.87;3.33;;;;;;;;;;5073281;28;20568;-67
2023/09/13 01:53:57;;;;;;;7.13;4.27;;;;;;;;;;5073167;28;20441;-68
2023/09/13 01:56:25;;;;;;;5.50;3.97;;;;;;;;;;5073471;28;21006;-68
2023/09/13 01:58:52;;;;;;;4.53;2.80;;;;;;;;;;5073375;28;20496;-68
2023/09/13 02:01:19;;;;;;;6.00;3.30;;;;;;;;;;5073029;28;20773;-67
2023/09/13 02:03:48;;;;;;;5.63;3.50;;;;;;;;;;5072056;28;20437;-68
2023/09/13 02:06:15;;;;;;;5.33;3.83;;;;;;;;;;5073373;28;20837;-68
2023/09/13 02:08:42;;;;;;;5.10;3.50;;;;;;;;;;5073338;28;20437;-68
2023/09/13 02:11:10;;;;;;;4.70;3.50;;;;;;;;;;5073202;28;20444;-68
2023/09/13 02:13:37;;;;;;;6.87;4.20;;;;;;;;;;5072175;28;20472;-68
2023/09/13 02:16:07;;;;;;;6.13;3.67;;;;;;;;;;5072699;28;20442;-68
2023/09/13 02:18:34;;;;;;;5.23;3.57;;;;;;;;;;5072309;28;20947;-67
2023/09/13 02:21:03;;;;;;;4.10;2.90;;;;;;;;;;5071943;28;20449;-68
2023/09/13 02:23:30;;;;;;;4.47;2.60;;;;;;;;;;5072738;28;20529;-68
2023/09/13 02:25:57;;;;;;;5.30;3.07;;;;;;;;;;5072821;28;20449;-67
2023/09/13 02:28:24;;;;;;;6.60;3.80;;;;;;;;;;5072658;28;20445;-68
2023/09/13 02:30:51;;;;;;;5.30;3.60;;;;;;;;;;5072850;28;20442;-67
2023/09/13 02:33:18;;;;;;;6.67;4.00;;;;;;;;;;5072293;28;20548;-67
2023/09/13 02:35:47;;;;;;;4.00;2.80;;;;;;;;;;5072266;28;20498;-67
2023/09/13 02:38:16;;;;;;;4.33;3.10;;;;;;;;;;5072535;28;20515;-67
2023/09/13 02:40:44;;;;;;;5.70;3.10;;;;;;;;;;5073633;28;20449;-67
2023/09/13 02:43:11;;;;;;;5.03;3.03;;;;;;;;;;5074668;28;20526;-68
2023/09/13 02:45:38;;;;;;;5.83;2.73;;;;;;;;;;5074673;28;20441;-68
2023/09/13 02:48:06;;;;;;;5.00;3.30;;;;;;;;;;5072759;28;20441;-66
2023/09/13 02:50:33;;;;;;;6.43;3.47;;;;;;;;;;5072441;28;20468;-68
2023/09/13 02:53:00;;;;;;;3.70;2.27;;;;;;;;;;5071767;28;20458;-68
2023/09/13 02:55:28;;;;;;;6.90;3.40;;;;;;;;;;5071730;28;20448;-68
2023/09/13 02:57:56;;;;;;;6.93;4.50;;;;;;;;;;5073279;28;20481;-69
2023/09/13 03:00:23;;;;;;;5.07;3.40;;;;;;;;;;5073568;28;20807;-68
2023/09/13 03:02:50;;;;;;;6.90;3.43;;;;;;;;;;5076718;28;20491;-68
2023/09/13 03:05:17;;;;;;;4.13;2.80;;;;;;;;;;5075326;28;20438;-68
2023/09/13 03:07:45;;;;;;;5.83;3.20;;;;;;;;;;5073128;28;20448;-68
2023/09/13 03:10:12;;;;;;;4.33;3.30;;;;;;;;;;5073156;28;20433;-68
2023/09/13 03:12:40;;;;;;;5.47;3.40;;;;;;;;;;5072888;28;20456;-68
2023/09/13 03:15:08;;;;;;;5.50;3.40;;;;;;;;;;5072681;28;20779;-69
2023/09/13 03:17:35;;;;;;;4.97;2.93;;;;;;;;;;5072486;28;20568;-68
2023/09/13 03:20:02;;;;;;;4.20;3.00;;;;;;;;;;5072312;28;20796;-68
2023/09/13 03:22:29;;;;;;;7.40;3.30;;;;;;;;;;5072034;28;20461;-69
2023/09/13 03:24:56;;;;;;;5.47;3.03;;;;;;;;;;5070846;28;20468;-69
2023/09/13 03:27:23;;;;;;;8.07;3.57;;;;;;;;;;5071756;28;20940;-68
2023/09/13 03:29:52;;;;;;;6.17;3.70;;;;;;;;;;5071982;28;20445;-68
2023/09/13 03:32:19;;;;;;;5.00;3.30;;;;;;;;;;5071790;28;20457;-70
2023/09/13 03:34:46;;;;;;;4.83;3.30;;;;;;;;;;5071702;28;20446;-68
2023/09/13 03:37:13;;;;;;;5.37;3.70;;;;;;;;;;5071655;28;20473;-67
2023/09/13 03:39:40;;;;;;;4.50;3.20;;;;;;;;;;5070596;28;20518;-68
2023/09/13 03:42:07;;;;;;;4.13;3.00;;;;;;;;;;5070799;28;20551;-68
2023/09/13 03:44:34;;;;;;;5.17;3.50;;;;;;;;;;5071901;28;20444;-68
2023/09/13 03:47:03;;;;;;;5.10;3.30;;;;;;;;;;5070522;28;20907;-68
2023/09/13 03:49:30;;;;;;;5.37;3.40;;;;;;;;;;5070873;28;20819;-68
2023/09/13 03:51:57;;;;;;;5.80;3.60;;;;;;;;;;5071299;28;20476;-69
2023/09/13 03:54:24;;;;;;;4.53;3.10;;;;;;;;;;5070417;28;20445;-68
2023/09/13 03:56:51;;;;;;;4.50;2.80;;;;;;;;;;5071346;28;20442;-68
2023/09/13 03:59:18;;;;;;;4.67;3.83;;;;;;;;;;5071287;28;20444;-68
2023/09/13 04:01:45;;;;;;;5.57;3.83;;;;;;;;;;5071158;28;20470;-68
2023/09/13 04:04:13;;;;;;;5.60;3.50;;;;;;;;;;5069484;28;20437;-68
2023/09/13 04:06:40;;;;;;;4.93;3.10;;;;;;;;;;5072736;28;20437;-68
2023/09/13 04:09:09;;;;;;;4.63;3.00;;;;;;;;;;5076083;28;20437;-68
2023/09/13 04:11:36;;;;;;;6.73;3.63;;;;;;;;;;5061658;28;20982;-68
2023/09/13 04:14:04;;;;;;;6.97;3.87;;;;;;;;;;5074541;28;20962;-68
2023/09/13 04:16:31;;;;;;;4.33;2.57;;;;;;;;;;5075342;28;20437;-69
2023/09/13 04:18:58;;;;;;;6.27;3.77;;;;;;;;;;5074556;28;20492;-68
2023/09/13 04:21:27;;;;;;;5.83;4.27;;;;;;;;;;5075098;28;20461;-68
2023/09/13 04:23:54;;;;;;;4.70;3.40;;;;;;;;;;5075365;28;20445;-68
2023/09/13 04:26:23;;;;;;;4.87;3.17;;;;;;;;;;5075701;28;20935;-69
2023/09/13 04:28:50;;;;;;;4.10;2.93;;;;;;;;;;5074599;28;20871;-68
2023/09/13 04:31:17;;;;;;;5.47;3.33;;;;;;;;;;5074831;28;20444;-68
2023/09/13 04:33:47;;;;;;;5.90;3.43;;;;;;;;;;5074936;28;20437;-69
2023/09/13 04:36:14;;;;;;;7.90;4.40;;;;;;;;;;5075221;28;20510;-68
2023/09/13 04:38:43;;;;;;;5.67;2.80;;;;;;;;;;5075076;28;20485;-67
2023/09/13 04:41:13;;;;;;;4.93;3.53;;;;;;;;;;5074485;28;20870;-67
2023/09/13 04:43:41;;;;;;;5.60;3.43;;;;;;;;;;5074651;28;20441;-64
2023/09/13 04:46:08;;;;;;;4.53;3.07;;;;;;;;;;5073859;28;20433;-63
2023/09/13 04:48:35;;;;;;;5.00;3.63;;;;;;;;;;5073832;28;20460;-61
2023/09/13 04:51:03;;;;;;;7.20;3.17;;;;;;;;;;5074730;28;20468;-65
2023/09/13 04:53:30;;;;;;;3.83;2.70;;;;;;;;;;5074332;28;20445;-63
2023/09/13 04:56:00;;;;;;;4.80;3.07;;;;;;;;;;5074635;28;20520;-63
2023/09/13 04:58:28;;;;;;;7.37;4.03;;;;;;;;;;5076298;28;20556;-65
2023/09/13 05:00:55;;;;;;;4.47;3.40;;;;;;;;;;5086030;28;20502;-63
2023/09/13 05:03:22;;;;;;;4.87;3.20;;;;;;;;;;5074404;28;20480;-63
2023/09/13 05:05:49;;;;;;;5.13;3.27;;;;;;;;;;5074743;28;20444;-64
2023/09/13 05:08:16;;;;;;;6.27;3.73;;;;;;;;;;5075107;28;20430;-63
2023/09/13 05:10:44;;;;;;;3.80;2.87;;;;;;;;;;5078423;28;20449;-63
2023/09/13 05:13:12;;;;;;;4.80;3.27;;;;;;;;;;5074097;28;20457;-63
2023/09/13 05:15:43;;;;;;;4.80;3.73;;;;;;;;;;5074522;28;20452;-63
2023/09/13 05:18:10;;;;;;;5.67;3.63;;;;;;;;;;5061590;28;20508;-63
2023/09/13 05:20:37;;;;;;;4.83;3.33;;;;;;;;;;5073948;28;20839;-64
2023/09/13 05:23:05;;;;;;;6.50;3.70;;;;;;;;;;5074351;28;20507;-63
2023/09/13 05:25:33;;;;;;;4.43;3.10;;;;;;;;;;5074705;28;20920;-63
2023/09/13 05:28:00;;;;;;;4.43;2.87;;;;;;;;;;5073879;28;20445;-63
2023/09/13 05:30:32;;;;;;;5.07;3.57;;;;;;;;;;5074228;28;20994;-63
2023/09/13 05:32:59;;;;;;;7.03;4.10;;;;;;;;;;5074031;28;20457;-63
2023/09/13 05:35:26;;;;;;;5.37;3.50;;;;;;;;;;5074547;28;20869;-63
2023/09/13 05:37:53;;;;;;;5.47;3.30;;;;;;;;;;5074764;28;20476;-63
2023/09/13 05:40:20;;;;;;;5.07;3.17;;;;;;;;;;5073690;28;20456;-64
2023/09/13 05:42:46;;;;;;;4.37;2.80;;;;;;;;;;5074275;28;20456;-64
2023/09/13 05:45:13;;;;;;;5.50;3.20;;;;;;;;;;5073599;28;20832;-63
2023/09/13 05:47:41;;;;;;;7.20;3.50;;;;;;;;;;5073380;28;20457;-63
2023/09/13 05:50:09;;;;;;;6.80;3.90;;;;;;;;;;5073732;28;20449;-63
2023/09/13 05:52:39;;;;;;;5.23;3.70;;;;;;;;;;5074510;28;20807;-63
2023/09/13 05:55:06;;;;;;;6.07;3.20;;;;;;;;;;5073631;28;20488;-63
2023/09/13 05:57:33;;;;;;;6.23;3.60;;;;;;;;;;5072524;28;20541;-62
2023/09/13 06:00:00;;;;;;;3.50;2.40;;;;;;;;;;5073603;28;20449;-63
2023/09/13 06:02:27;;;;;;;4.30;2.90;;;;;;;;;;5073189;28;20461;-63
2023/09/13 06:04:55;;;;;;;5.20;3.03;;;;;;;;;;5072805;28;20468;-63
2023/09/13 06:07:22;;;;;;;5.07;2.93;;;;;;;;;;5073256;28;20452;-64
2023/09/13 06:09:49;;;;;;;5.07;3.10;;;;;;;;;;5072985;28;20441;-63
2023/09/13 06:12:17;;;;;;;4.67;3.00;;;;;;;;;;5073242;28;21011;-64
2023/09/13 06:14:45;;;;;;;5.30;3.67;;;;;;;;;;5073871;28;20795;-63
2023/09/13 06:17:12;;;;;;;4.40;3.37;;;;;;;;;;5072488;28;20441;-64
2023/09/13 06:19:39;;;;;;;5.33;3.17;;;;;;;;;;5059786;28;20485;-63
2023/09/13 06:22:08;;;;;;;6.17;3.50;;;;;;;;;;5072639;28;20492;-62
2023/09/13 06:24:35;;;;;;;9.37;4.77;;;;;;;;;;5072590;28;20442;-62
2023/09/13 06:27:02;;;;;;;4.60;3.20;;;;;;;;;;5072541;28;21016;-63
2023/09/13 06:29:30;;;;;;;4.10;3.37;;;;;;;;;;5072459;28;20448;-62
2023/09/13 06:31:57;;;;;;;5.40;3.63;;;;;;;;;;5073537;28;20847;-63
2023/09/13 06:34:24;;;;;;;4.67;2.97;;;;;;;;;;5072850;28;20444;-64
2023/09/13 06:36:51;;;;;;;4.40;3.10;;;;;;;;;;5074505;28;20464;-63
2023/09/13 06:39:20;;;;;;;5.93;3.20;;;;;;;;;;5073185;28;20484;-63
2023/09/13 06:41:47;;;;;;;3.23;2.50;;;;;;;;;;5072450;28;20972;-64
2023/09/13 06:44:15;;;;;;;5.50;3.20;;;;;;;;;;5072089;28;20442;-63
2023/09/13 06:46:42;;;;;;;3.17;2.37;;;;;;;;;;5072837;28;20449;-63
2023/09/13 06:49:09;;;;;;;4.63;3.37;;;;;;;;;;5072633;28;20954;-64
2023/09/13 06:51:36;;;;;;;4.60;3.17;;;;;;;;;;5072671;28;20819;-63
2023/09/13 06:54:04;;;;;;;4.13;2.43;;;;;;;;;;5071630;28;20448;-63
2023/09/13 06:56:32;;;;;;;6.50;3.77;;;;;;;;;;5072727;28;20869;-62
2023/09/13 06:58:59;;;;;;;4.53;2.97;;;;;;;;;;5071961;28;20481;-63
2023/09/13 07:01:26;;;;;;;4.17;2.47;;;;;;;;;;5071823;28;20461;-63
2023/09/13 07:03:53;;;;;;;4.73;3.13;;;;;;;;;;5069732;28;20446;-63
2023/09/13 07:06:20;;;;;;;3.40;2.13;;;;;;;;;;5071808;28;20452;-64
2023/09/13 07:08:48;;;;;;;3.70;2.47;;;;;;;;;;5071919;28;20461;-62
2023/09/13 07:11:15;;;;;;;3.90;2.40;;;;;;;;;;5072101;28;20448;-63
2023/09/13 07:13:43;;;;;;;3.50;2.10;;;;;;;;;;5071337;28;20441;-63
2023/09/13 07:16:10;;;;;;;3.10;2.17;;;;;;;;;;5071302;28;20456;-65
2023/09/13 07:18:37;;;;;;;4.40;2.63;;;;;;;;;;5071850;28;20504;-63
2023/09/13 07:21:04;;;;;;;4.70;2.33;;;;;;;;;;5071072;28;20464;-63
2023/09/13 07:23:32;;;;;;;3.27;2.13;;;;;;;;;;5071608;28;20931;-63
2023/09/13 07:25:59;;;;;;;3.73;2.00;;;;;;;;;;5072244;28;20448;-63
2023/09/13 07:28:26;;;;;;;2.80;1.80;;;;;;;;;;5072116;28;20437;-63
2023/09/13 07:30:55;;;;;;;3.53;2.27;;;;;;;;;;5071687;28;20511;-62
2023/09/13 07:33:22;;;;;;;11.27;3.33;;;;;;;;;;5071292;28;20461;-63
2023/09/13 07:35:49;;;;;;;6.23;3.23;;;;;;;;;;5071348;28;20445;-63
2023/09/13 07:38:16;;;;;;;7.00;3.23;;;;;;;;;;5070949;28;20483;-63
2023/09/13 07:40:43;;;;;;;7.37;3.33;;;;;;;;;;5076022;28;20437;-63
2023/09/13 07:43:10;;;;;;;4.63;3.47;;;;;;;;;;5071501;28;20916;-63
2023/09/13 07:45:37;;;;;;;9.37;2.73;;;;;;;;;;5071223;28;20936;-63
2023/09/13 07:48:06;;;;;;;8.00;3.77;;;;;;;;;;5071198;28;20429;-62
2023/09/13 07:50:34;;;;;;;3.90;2.23;;;;;;;;;;5062924;28;20437;-62
2023/09/13 07:53:01;;;;;;;6.30;4.03;;;;;;;;;;5071477;28;21030;-62
2023/09/13 07:55:28;;;;;;;3.27;2.60;;;;;;;;;;5070750;28;20433;-62
2023/09/13 07:57:55;;;;;;;6.37;3.30;;;;;;;;;;5072093;28;20442;-63
2023/09/13 08:00:22;;;;;;;5.53;2.30;;;;;;;;;;5072366;28;20441;-62
2023/09/13 08:02:50;;;;;;;3.60;2.20;;;;;;;;;;5071136;28;20457;-63
2023/09/13 08:05:18;;;;;;;3.07;1.80;;;;;;;;;;5071502;28;20442;-63
2023/09/13 08:07:46;;;;;;;3.80;2.73;;;;;;;;;;5070967;28;20975;-63
2023/09/13 08:10:13;;;;;;;3.83;2.60;;;;;;;;;;5071211;28;20437;-62
2023/09/13 08:12:40;;;;;;;6.00;2.80;;;;;;;;;;5070067;28;20465;-63
2023/09/13 08:15:08;;;;;;;4.20;2.43;;;;;;;;;;5071088;28;20445;-63
2023/09/13 08:17:35;;;;;;;3.60;2.20;;;;;;;;;;5070911;28;20441;-63
2023/09/13 08:20:05;;;;;;;4.40;2.17;;;;;;;;;;5071191;28;20483;-63
2023/09/13 08:22:33;;;;;;;4.00;2.80;;;;;;;;;;5071481;28;20472;-63
2023/09/13 08:25:00;;;;;;;5.70;3.20;;;;;;;;;;5071095;28;20465;-63
2023/09/13 08:27:27;;;;;;;3.40;2.17;;;;;;;;;;5070773;28;20448;-62
2023/09/13 08:29:55;;;;;;;7.93;3.77;;;;;;;;;;5070783;28;20437;-63
2023/09/13 08:32:22;;;;;;;6.83;2.77;;;;;;;;;;5070750;28;20568;-63
2023/09/13 08:34:49;;;;;;;3.73;2.20;;;;;;;;;;5071181;28;20511;-63
2023/09/13 08:37:17;;;;;;;4.50;2.73;;;;;;;;;;5071855;28;20815;-63
2023/09/13 08:39:45;;;;;;;3.17;2.17;;;;;;;;;;5071188;28;20499;-63
2023/09/13 08:42:13;;;;;;;3.30;2.07;;;;;;;;;;5070180;28;20475;-63
2023/09/13 08:44:41;;;;;;;3.17;2.20;;;;;;;;;;5071119;28;20446;-63
2023/09/13 08:47:10;;;;;;;2.80;1.40;;;;;;;;;;5068185;28;20444;-63
2023/09/13 08:49:37;;;;;;;3.17;2.00;;;;;;;;;;5071237;28;20449;-67
2023/09/13 08:52:05;;;;;;;3.47;1.83;;;;;;;;;;5069902;28;20492;-67
2023/09/13 08:54:33;;;;;;;2.40;1.73;;;;;;;;;;5075239;28;20503;-68
2023/09/13 08:57:03;;;;;;;3.20;2.00;;;;;;;;;;5061905;28;20441;-68
2023/09/13 08:59:30;;;;;;;3.17;1.53;;;;;;;;;;5074598;28;20485;-68
2023/09/13 09:01:57;;;;;;;6.50;2.27;;;;;;;;;;5073742;28;20465;-67
2023/09/13 09:04:25;;;;;;;2.70;1.83;;;;;;;;;;5074335;28;20442;-67
2023/09/13 09:06:52;;;;;;;3.07;2.00;;;;;;;;;;5073074;28;20433;-67
2023/09/13 09:09:20;;;;;;;3.67;1.90;;;;;;;;;;5074004;28;20467;-67
2023/09/13 09:11:51;;;;;;;2.60;1.90;;;;;;;;;;5074419;28;20468;-67
2023/09/13 09:14:22;;;;;;;3.53;2.03;;;;;;;;;;5074212;28;20441;-67
2023/09/13 09:16:51;;;;;;;3.57;2.33;;;;;;;;;;5054110;28;20438;-67
2023/09/13 09:19:18;;;;;;;3.20;1.87;;;;;;;;;;5071857;28;20492;-67
2023/09/13 09:21:46;;;;;;;3.00;1.73;;;;;;;;;;5072988;28;20457;-67
2023/09/13 09:24:13;;;;;;;2.83;1.80;;;;;;;;;;5073784;28;20456;-67
2023/09/13 09:26:40;;;;;;;2.47;1.60;;;;;;;;;;5073679;28;20452;-67
2023/09/13 09:29:13;;;;;;;2.60;1.77;;;;;;;;;;5074145;28;20907;-68
2023/09/13 09:31:42;;;;;;;2.83;1.67;;;;;;;;;;5074064;28;20465;-67
2023/09/13 09:34:10;;;;;;;3.10;1.57;;;;;;;;;;5073637;28;20452;-66
2023/09/13 09:36:40;;;;;;;2.93;1.50;;;;;;;;;;5073901;28;20450;-67
2023/09/13 09:39:07;;;;;;;2.70;1.70;;;;;;;;;;5071925;28;20562;-67
2023/09/13 09:41:35;;;;;;;3.33;1.97;;;;;;;;;;5073082;28;20892;-66
2023/09/13 09:44:02;;;;;;;6.33;2.90;;;;;;;;;;5073647;28;20445;-66
2023/09/13 09:46:30;;;;;;;3.40;2.50;;;;;;;;;;5072784;28;20445;-67
2023/09/13 09:48:58;;;;;;;2.90;1.80;;;;;;;;;;5073582;28;20445;-66
2023/09/13 09:51:25;;;;;;;3.27;2.17;;;;;;;;;;5073143;28;20477;-66
2023/09/13 09:53:53;;;;;;;2.50;1.37;;;;;;;;;;5073029;28;20471;-66
2023/09/13 09:56:21;;;;;;;2.87;1.77;;;;;;;;;;5073461;28;20442;-66
2023/09/13 09:58:48;;;;;;;2.77;1.87;;;;;;;;;;5072744;28;20548;-66
2023/09/13 10:01:16;;;;;;;2.80;1.70;;;;;;;;;;5072618;28;20936;-66
2023/09/13 10:03:44;;;;;;;3.57;1.63;;;;;;;;;;5072519;28;20448;-66
2023/09/13 10:06:13;;;;;;;3.80;1.67;;;;;;;;;;5073364;28;20441;-66
2023/09/13 10:08:41;;;;;;;3.73;1.70;;;;;;;;;;5073941;28;20528;-67
2023/09/13 10:11:08;;;;;;;3.23;1.83;;;;;;;;;;5073460;28;20446;-67
2023/09/13 10:13:36;;;;;;;2.47;1.70;;;;;;;;;;5072913;28;20455;-67
2023/09/13 10:16:04;;;;;;;2.50;1.60;;;;;;;;;;5071829;28;20911;-66
2023/09/13 10:18:32;;;;;;;2.57;1.90;;;;;;;;;;5073226;28;20450;-68
2023/09/13 10:21:00;;;;;;;3.90;2.17;;;;;;;;;;5073667;28;20485;-66
2023/09/13 10:23:30;;;;;;;3.23;1.70;;;;;;;;;;5073266;28;20499;-62
2023/09/13 10:26:00;;;;;;;4.10;1.80;;;;;;;;;;5074115;28;20442;-63
2023/09/13 10:28:28;;;;;;;3.97;2.30;;;;;;;;;;5073520;28;20442;-63
2023/09/13 10:30:58;;;;;;;2.67;1.93;;;;;;;;;;5072852;28;20473;-62
2023/09/13 10:33:25;;;;;;;4.83;1.57;;;;;;;;;;5072806;28;20540;-62
2023/09/13 10:35:54;;;;;;;3.77;1.90;;;;;;;;;;5072212;28;20928;-63
2023/09/13 10:38:24;;;;;;;3.30;1.83;;;;;;;;;;5073410;28;20445;-64
2023/09/13 10:40:57;;;;;;;3.43;1.83;;;;;;;;;;5071701;28;20480;-63
2023/09/13 10:43:25;;;;;;;3.33;1.90;;;;;;;;;;5072309;28;20463;-64
2023/09/13 10:45:52;;;;;;;2.93;1.60;;;;;;;;;;5072501;28;20857;-64
2023/09/13 10:48:20;;;;;;;3.17;1.87;;;;;;;;;;5072373;28;20535;-63
2023/09/13 10:50:48;;;;;;;3.07;1.97;;;;;;;;;;5054196;28;20445;-62
2023/09/13 10:53:15;;;;;;;6.10;2.37;;;;;;;;;;5071587;28;20552;-63
2023/09/13 10:55:43;;;;;;;3.30;2.23;;;;;;;;;;5073127;28;20445;-63
2023/09/13 10:58:13;;;;;;;3.20;2.00;;;;;;;;;;5072044;28;20740;-63
2023/09/13 11:00:44;;;;;;;7.50;2.40;;;;;;;;;;5072210;28;20572;-63
2023/09/13 11:03:12;;;;;;;3.10;1.90;;;;;;;;;;5072126;28;20828;-64
2023/09/13 11:05:39;;;;;;;2.83;1.93;;;;;;;;;;5072006;28;20491;-63
2023/09/13 11:08:11;;;;;;;3.00;2.00;;;;;;;;;;5072122;28;20460;-63
2023/09/13 11:10:38;;;;;;;2.87;1.80;;;;;;;;;;5070094;28;20429;-62
2023/09/13 11:13:14;;;;;;;2.83;1.63;;;;;;;;;;5072501;28;20472;-63
2023/09/13 11:15:48;;;;;;;2.63;1.97;;;;;;;;;;5070946;28;20452;-63
2023/09/13 11:18:16;;;;;;;2.83;1.70;;;;;;;;;;5071778;28;20517;-63
2023/09/13 11:20:43;;;;;;;3.10;1.73;;;;;;;;;;5071602;28;20480;-63
2023/09/13 11:23:14;;;;;;;3.70;1.80;;;;;;;;;;5071643;28;20473;-63
2023/09/13 11:25:43;;;;;;;3.00;1.87;;;;;;;;;;5071695;28;20461;-63
2023/09/13 11:28:28;;;;;;;3.30;2.00;;;;;;;;;;5071505;28;20448;-63
2023/09/13 11:30:58;;;;;;;3.40;2.03;;;;;;;;;;5070551;28;20444;-63
2023/09/13 11:33:25;;;;;;;3.20;1.97;;;;;;;;;;5071415;28;20461;-63
2023/09/13 11:35:52;;;;;;;3.40;2.00;;;;;;;;;;5071245;28;20532;-64
2023/09/13 11:38:19;;;;;;;5.13;2.50;;;;;;;;;;5071358;28;20480;-63
2023/09/13 11:40:47;;;;;;;8.13;2.23;;;;;;;;;;5071589;28;20477;-63
2023/09/13 11:43:21;;;;;;;4.63;2.23;;;;;;;;;;5071378;28;20445;-63
2023/09/13 11:45:49;;;;;;;3.33;2.27;;;;;;;;;;5070950;28;20442;-63
2023/09/13 11:48:22;;;;;;;2.20;1.50;;;;;;;;;;5070196;28;20461;-65
2023/09/13 11:50:52;;;;;;;3.60;2.10;;;;;;;;;;5070692;28;20457;-63
2023/09/13 11:53:25;;;;;;;4.63;2.23;;;;;;;;;;5070602;28;20465;-63
2023/09/13 11:55:54;;;;;;;2.70;2.13;;;;;;;;;;5071614;28;20445;-63
2023/09/13 11:58:30;;;;;;;3.60;2.03;;;;;;;;;;5125000;22;20567;-63
2023/09/13 12:00:57;;;;;;;3.40;2.00;;;;;;;;;;5071014;28;20476;-63
2023/09/13 12:03:26;;;;;;;3.30;2.00;;;;;;;;;;5052948;28;20461;-63
2023/09/13 12:05:53;;;;;;;3.20;1.90;;;;;;;;;;5054148;28;20446;-62
2023/09/13 12:08:22;;;;;;;2.57;1.63;;;;;;;;;;5069892;28;20441;-64
2023/09/13 12:10:50;;;;;;;2.90;2.10;;;;;;;;;;5069969;28;20437;-63
2023/09/13 12:13:17;;;;;;;2.87;2.10;;;;;;;;;;5055035;28;20507;-61
2023/09/13 12:16:01;;;;;;;3.70;1.90;;;;;;;;;;5052437;28;20957;-63
2023/09/13 12:18:30;;;;;;;2.57;1.90;;;;;;;;;;5060639;28;20809;-62
2023/09/13 12:20:58;;;;;;;9.83;2.10;;;;;;;;;;5056983;28;20485;-64
2023/09/13 12:23:26;;;;;;;3.13;1.77;;;;;;;;;;5064086;28;20552;-63
2023/09/13 12:25:53;;;;;;;2.20;1.37;;;;;;;;;;5065614;28;20496;-63
2023/09/13 12:28:29;;;;;;;2.90;1.70;;;;;;;;;;5052151;28;20447;-62
2023/09/13 12:30:57;;;;;;;2.60;2.10;;;;;;;;;;5067949;28;20913;-63
2023/09/13 12:33:24;;;;;;;3.00;1.90;;;;;;;;;;5062444;28;20460;-63
2023/09/13 12:35:53;;;;;;;2.60;1.80;;;;;;;;;;5061453;28;20517;-64
2023/09/13 12:38:21;;;;;;;2.30;1.63;;;;;;;;;;5074217;28;20452;-63
2023/09/13 12:40:49;;;;;;;4.87;1.80;;;;;;;;;;5060350;28;20560;-63
2023/09/13 12:43:16;;;;;;;2.63;1.70;;;;;;;;;;5062363;28;20493;-63
2023/09/13 12:45:43;;;;;;;4.03;1.60;;;;;;;;;;5060657;28;20831;-63
2023/09/13 12:48:12;;;;;;;2.97;1.87;;;;;;;;;;5060251;28;20442;-63
2023/09/13 12:50:39;;;;;;;2.30;1.53;;;;;;;;;;5054253;28;20815;-62
2023/09/13 12:53:07;;;;;;;2.60;2.00;;;;;;;;;;5068241;28;20462;-62
2023/09/13 12:55:34;;;;;;;1.90;1.20;;;;;;;;;;5065508;28;20438;-62
2023/09/13 12:58:04;;;;;;;2.03;1.53;;;;;;;;;;5067164;28;20452;-62
2023/09/13 13:00:31;;;;;;;3.60;1.70;;;;;;;;;;5059951;28;20999;-62
2023/09/13 13:02:59;;;;;;;3.93;2.30;;;;;;;;;;5066371;28;20531;-63
2023/09/13 13:05:26;;;;;;;5.10;1.83;;;;;;;;;;5060510;28;20512;-63
2023/09/13 13:07:53;;;;;;;2.10;1.40;;;;;;;;;;5061436;28;20449;-62
2023/09/13 13:10:21;;;;;;;3.00;1.77;;;;;;;;;;5062847;28;20487;-64
2023/09/13 13:12:54;;;;;;;3.20;1.67;;;;;;;;;;5061208;28;20462;-63
2023/09/13 13:15:26;;;;;;;3.60;1.90;;;;;;;;;;5066212;28;20472;-62
2023/09/13 13:17:53;;;;;;;2.87;2.20;;;;;;;;;;5063542;28;20859;-62
2023/09/13 13:20:20;;;;;;;4.67;1.83;;;;;;;;;;5061309;28;20827;-63
2023/09/13 13:22:47;;;;;;;3.17;2.07;;;;;;;;;;5066425;28;20524;-62
2023/09/13 13:25:20;;;;;;;2.37;1.40;;;;;;;;;;5060385;28;20453;-62
2023/09/13 13:27:48;;;;;;;3.63;2.00;;;;;;;;;;5072281;28;20494;-61
2023/09/13 13:30:16;;;;;;;4.80;1.97;;;;;;;;;;5069608;28;20437;-63
2023/09/13 13:32:43;;;;;;;3.57;1.80;;;;;;;;;;5059901;28;20822;-62
2023/09/13 13:35:10;;;;;;;3.27;1.90;;;;;;;;;;5068675;28;20448;-62
2023/09/13 13:37:37;;;;;;;4.07;1.83;;;;;;;;;;5072402;28;20472;-62
2023/09/13 13:40:04;;;;;;;2.87;1.80;;;;;;;;;;5058950;28;20446;-63
2023/09/13 13:42:32;;;;;;;1.90;1.20;;;;;;;;;;5060310;28;20457;-64
2023/09/13 13:45:01;;;;;;;4.13;2.00;;;;;;;;;;5058817;28;20460;-63
2023/09/13 13:47:28;;;;;;;5.60;2.00;;;;;;;;;;5070030;28;20434;-63
2023/09/13 13:49:56;;;;;;;2.50;1.77;;;;;;;;;;5072552;28;20433;-63
2023/09/13 13:52:24;;;;;;;3.13;1.83;;;;;;;;;;5073246;28;20476;-62
2023/09/13 13:54:52;;;;;;;2.90;1.70;;;;;;;;;;5068455;28;20438;-62
2023/09/13 13:57:19;;;;;;;3.20;1.93;;;;;;;;;;5061502;28;20789;-62
2023/09/13 13:59:46;;;;;;;3.93;2.40;;;;;;;;;;5069330;28;20905;-63
2023/09/13 14:02:14;;;;;;;2.70;1.70;;;;;;;;;;5061985;28;20492;-63
2023/09/13 14:04:41;;;;;;;2.50;1.43;;;;;;;;;;5065875;28;20438;-62
2023/09/13 14:07:08;;;;;;;3.00;2.00;;;;;;;;;;5060717;28;20947;-64
2023/09/13 14:09:35;;;;;;;5.23;1.50;;;;;;;;;;5067948;28;20441;-62
2023/09/13 14:12:04;;;;;;;2.70;1.60;;;;;;;;;;5057415;28;21007;-64
2023/09/13 14:14:31;;;;;;;2.83;1.67;;;;;;;;;;5061630;28;20850;-62
2023/09/13 14:16:58;;;;;;;2.90;2.27;;;;;;;;;;5061275;28;20558;-62
2023/09/13 14:19:26;;;;;;;3.37;2.00;;;;;;;;;;5066138;28;20446;-62
2023/09/13 14:21:56;;;;;;;3.00;1.90;;;;;;;;;;5063916;28;20477;-63
2023/09/13 14:24:23;;;;;;;3.13;2.27;;;;;;;;;;5060090;28;20446;-63
2023/09/13 14:26:50;;;;;;;3.10;2.40;;;;;;;;;;5061669;28;20563;-63
2023/09/13 14:29:17;;;;;;;3.43;2.23;;;;;;;;;;5064969;28;20450;-63
2023/09/13 14:31:45;;;;;;;5.00;3.10;;;;;;;;;;5064366;28;20585;-65
2023/09/13 14:34:13;;;;;;;3.17;2.13;;;;;;;;;;5055622;28;20442;-63
2023/09/13 14:36:41;;;;;;;2.80;1.70;;;;;;;;;;5065849;28;20441;-63
2023/09/13 14:39:08;;;;;;;3.70;2.40;;;;;;;;;;5065643;28;20464;-64
2023/09/13 14:41:35;;;;;;;3.60;2.23;;;;;;;;;;5064536;28;20489;-64
2023/09/13 14:44:02;;;;;;;3.70;2.03;;;;;;;;;;5072283;28;20806;-63
2023/09/13 14:46:29;;;;;;;2.63;2.03;;;;;;;;;;5059069;28;20442;-63
2023/09/13 14:48:56;;;;;;;3.00;2.00;;;;;;;;;;5064973;28;20438;-63